createdAt,value
2022-09-05T00:02:29.188Z,2.83
2022-09-05T00:05:24.509Z,3.30
2022-09-05T00:08:25.606Z,3.20
2022-09-05T00:11:43.191Z,2.90
2022-09-05T00:13:48.975Z,3.17
2022-09-05T00:16:37.501Z,2.87
2022-09-05T00:24:20.190Z,3.17
2022-09-05T00:24:27.839Z,3.10
2022-09-05T00:25:30.435Z,2.50
2022-09-05T00:27:48.110Z,3.85
2022-09-05T00:31:08.073Z,2.70
2022-09-05T00:33:03.623Z,3.17
2022-09-05T00:35:53.063Z,3.07
2022-09-05T00:38:32.127Z,2.97
2022-09-05T00:41:02.477Z,3.30
2022-09-05T00:43:43.805Z,3.07
2022-09-05T00:46:26.264Z,3.08
2022-09-05T00:49:13.565Z,2.93
2022-09-05T00:51:46.416Z,3.07
2022-09-05T00:54:40.576Z,2.90
2022-09-05T00:57:18.093Z,3.47
2022-09-05T01:00:22.717Z,3.03
2022-09-05T01:03:10.034Z,3.22
2022-09-05T01:05:52.182Z,2.72
2022-09-05T01:08:43.114Z,3.20
2022-09-05T01:11:37.132Z,3.27
2022-09-05T01:14:29.259Z,3.23
2022-09-05T01:17:30.241Z,2.80
2022-09-05T01:20:19.230Z,3.00
2022-09-05T01:23:20.478Z,3.15
2022-09-05T01:26:10.003Z,3.47
2022-09-05T01:29:17.835Z,3.33
2022-09-05T01:32:03.600Z,3.47
2022-09-05T01:34:41.562Z,3.60
2022-09-05T01:37:32.673Z,2.90
2022-09-05T01:40:14.438Z,2.90
2022-09-05T01:42:43.661Z,3.17
2022-09-05T01:45:29.087Z,3.10
2022-09-05T01:48:18.213Z,3.20
2022-09-05T01:51:05.358Z,3.40
2022-09-05T01:53:39.220Z,3.12
2022-09-05T01:56:13.050Z,3.20
2022-09-05T01:58:54.267Z,3.42
2022-09-05T02:04:13.740Z,3.60
2022-09-05T02:07:22.491Z,3.10
2022-09-05T02:09:55.274Z,3.30
2022-09-05T02:12:44.428Z,3.50
2022-09-05T02:15:21.554Z,3.70
2022-09-05T02:17:54.116Z,3.20
2022-09-05T02:20:35.435Z,3.13
2022-09-05T02:23:40.434Z,3.27
2022-09-05T02:26:08.193Z,3.40
2022-09-05T02:29:02.942Z,2.90
2022-09-05T02:31:44.718Z,3.50
2022-09-05T02:34:20.255Z,3.70
2022-09-05T02:37:09.446Z,3.50
2022-09-05T02:45:00.129Z,3.77
2022-09-05T02:45:17.869Z,3.35
2022-09-05T02:45:46.101Z,3.15
2022-09-05T02:48:22.216Z,3.75
2022-09-05T02:57:26.093Z,3.30
2022-09-05T02:57:41.942Z,3.97
2022-09-05T02:57:43.273Z,4.50
2022-09-05T03:00:02.358Z,4.30
2022-09-05T03:02:43.695Z,3.70
2022-09-05T03:05:24.556Z,4.40
2022-09-05T03:08:12.087Z,4.17
2022-09-05T03:10:55.014Z,4.37
2022-09-05T03:13:53.826Z,3.90
2022-09-05T03:16:47.178Z,4.47
2022-09-05T03:19:47.026Z,3.75
2022-09-05T03:22:53.052Z,3.90
2022-09-05T03:25:43.597Z,4.55
2022-09-05T03:28:38.208Z,4.25
2022-09-05T03:31:26.319Z,4.30
2022-09-05T03:34:32.087Z,4.70
2022-09-05T03:37:33.182Z,4.40
2022-09-05T03:40:15.735Z,5.07
2022-09-05T03:43:00.931Z,5.47
2022-09-05T03:45:54.311Z,5.53
2022-09-05T03:48:44.512Z,4.45
2022-09-05T03:57:08.886Z,4.60
2022-09-05T03:57:16.383Z,5.60
2022-09-05T03:57:18.761Z,4.20
2022-09-05T03:59:55.957Z,4.57
2022-09-05T04:04:39.237Z,5.50
2022-09-05T04:08:17.884Z,6.30
2022-09-05T04:08:27.565Z,5.53
2022-09-05T04:10:32.168Z,7.03
2022-09-05T04:13:07.809Z,6.97
2022-09-05T04:15:46.053Z,6.70
2022-09-05T04:18:25.677Z,7.04
2022-09-05T04:21:05.090Z,5.90
2022-09-05T04:23:37.942Z,6.10
2022-09-05T04:26:14.499Z,6.80
2022-09-05T04:28:53.201Z,7.90
2022-09-05T04:31:29.942Z,7.10
2022-09-05T04:34:21.928Z,8.37
2022-09-05T04:37:03.769Z,7.80
2022-09-05T04:39:34.727Z,7.30
2022-09-05T04:42:09.413Z,7.62
2022-09-05T04:44:48.087Z,7.03
2022-09-05T04:47:21.112Z,8.00
2022-09-05T04:50:10.376Z,8.40
2022-09-05T04:52:43.022Z,9.00
2022-09-05T04:55:18.501Z,9.13
2022-09-05T04:58:07.544Z,7.27
2022-09-05T05:06:01.008Z,7.40
2022-09-05T05:06:16.461Z,8.23
2022-09-05T05:06:30.087Z,8.67
2022-09-05T05:08:43.818Z,7.70
2022-09-05T05:18:03.433Z,8.27
2022-09-05T05:18:11.320Z,8.26
2022-09-05T05:18:11.987Z,7.97
2022-09-05T05:23:07.385Z,8.63
2022-09-05T05:25:52.571Z,8.23
2022-09-05T05:28:34.514Z,8.03
2022-09-05T05:31:16.031Z,8.83
2022-09-05T05:33:48.890Z,8.47
2022-09-05T05:36:21.723Z,7.95
2022-09-05T05:39:00.488Z,8.20
2022-09-05T05:41:48.383Z,9.23
2022-09-05T05:44:21.454Z,8.37
2022-09-05T05:47:03.244Z,8.33
2022-09-05T05:49:38.839Z,7.50
2022-09-05T05:52:29.572Z,9.03
2022-09-05T05:55:50.625Z,9.10
2022-09-05T05:58:11.921Z,7.43
2022-09-05T06:00:51.914Z,7.40
2022-09-05T06:03:51.969Z,8.53
2022-09-05T06:06:33.741Z,8.50
2022-09-05T06:14:51.551Z,8.33
2022-09-05T06:15:24.658Z,7.50
2022-09-05T06:18:03.435Z,7.40
2022-09-05T06:22:05.454Z,8.55
2022-09-05T06:24:10.897Z,7.90
2022-09-05T06:26:51.981Z,8.05
2022-09-05T06:29:55.527Z,7.17
2022-09-05T06:32:55.357Z,6.95
2022-09-05T06:35:28.098Z,7.53
2022-09-05T06:38:26.942Z,7.87
2022-09-05T06:41:02.908Z,7.70
2022-09-05T06:43:54.339Z,8.03
2022-09-05T06:46:55.084Z,7.50
2022-09-05T06:49:30.818Z,7.90
2022-09-05T06:52:32.935Z,8.43
2022-09-05T06:55:38.666Z,8.00
2022-09-05T06:58:27.158Z,7.93
2022-09-05T07:00:59.792Z,8.00
2022-09-05T07:03:52.206Z,8.47
2022-09-05T07:06:49.411Z,7.92
2022-09-05T07:09:39.110Z,7.70
2022-09-05T07:12:21.952Z,7.60
2022-09-05T07:15:08.826Z,7.30
2022-09-05T07:18:06.185Z,7.27
2022-09-05T07:20:23.781Z,7.33
2022-09-05T07:23:47.676Z,6.90
2022-09-05T07:25:37.487Z,7.03
2022-09-05T07:28:28.837Z,5.87
2022-09-05T07:33:22.523Z,5.85
2022-09-05T07:35:53.530Z,8.07
2022-09-05T07:38:35.289Z,6.73
2022-09-05T07:41:06.972Z,6.13
2022-09-05T07:43:40.085Z,5.27
2022-09-05T07:46:15.807Z,4.57
2022-09-05T07:48:48.409Z,4.07
2022-09-05T07:56:55.459Z,3.43
2022-09-05T07:57:08.355Z,4.20
2022-09-05T07:57:23.148Z,3.70
2022-09-05T07:59:19.221Z,3.43
2022-09-05T08:01:52.162Z,3.00
2022-09-05T08:04:32.080Z,3.67
2022-09-05T08:07:48.759Z,3.47
2022-09-05T08:10:07.063Z,3.20
2022-09-05T08:12:27.839Z,3.17
2022-09-05T08:15:06.607Z,3.20
2022-09-05T08:17:59.089Z,2.87
2022-09-05T08:20:55.693Z,2.60
2022-09-05T08:23:37.610Z,3.30
2022-09-05T08:26:28.954Z,3.60
2022-09-05T08:29:30.368Z,3.20
2022-09-05T08:32:14.691Z,3.43
2022-09-05T08:34:47.506Z,3.23
2022-09-05T08:37:22.870Z,3.03
2022-09-05T08:40:10.362Z,2.90
2022-09-05T08:42:35.346Z,3.15
2022-09-05T08:46:43.349Z,2.50
2022-09-05T08:48:17.990Z,2.00
2022-09-05T08:51:24.962Z,3.00
2022-09-05T08:54:21.172Z,2.40
2022-09-05T08:57:02.515Z,2.73
2022-09-05T09:00:18.546Z,2.17
2022-09-05T09:02:47.229Z,1.95
2022-09-05T09:05:58.112Z,2.62
2022-09-05T09:08:15.676Z,2.40
2022-09-05T09:10:55.422Z,2.37
2022-09-05T09:13:37.212Z,2.30
2022-09-05T09:18:56.268Z,2.25
2022-09-05T09:21:49.036Z,2.40
2022-09-05T09:24:40.816Z,1.75
2022-09-05T09:27:31.343Z,1.70
2022-09-05T09:29:56.373Z,1.50
2022-09-05T09:32:26.725Z,1.65
2022-09-05T09:34:59.527Z,1.80
2022-09-05T09:37:59.390Z,1.40
2022-09-05T09:43:15.716Z,1.52
2022-09-05T09:45:57.144Z,1.27
2022-09-05T09:48:50.290Z,1.40
2022-09-05T09:51:47.270Z,1.47
2022-09-05T09:54:28.709Z,1.70
2022-09-05T09:57:20.010Z,1.30
2022-09-05T09:59:59.359Z,1.40
2022-09-05T10:06:30.305Z,1.30
2022-09-05T10:10:44.345Z,1.20
2022-09-05T10:10:48.643Z,1.37
2022-09-05T10:11:40.179Z,1.30
2022-09-05T10:13:44.956Z,1.30
2022-09-05T10:16:34.695Z,1.32
2022-09-05T10:20:07.527Z,1.17
2022-09-05T10:25:19.450Z,1.00
2022-09-05T10:27:57.892Z,1.20
2022-09-05T10:31:18.333Z,1.30
2022-09-05T10:35:14.307Z,1.23
2022-09-05T10:36:31.855Z,1.02
2022-09-05T10:39:23.896Z,0.90
2022-09-05T10:42:25.236Z,0.90
2022-09-05T10:44:57.884Z,0.90
2022-09-05T10:47:33.536Z,1.10
2022-09-05T10:50:31.325Z,0.82
2022-09-05T10:53:06.603Z,1.00
2022-09-05T11:02:16.294Z,0.90
2022-09-05T11:02:30.484Z,0.87
2022-09-05T11:04:46.616Z,0.88
2022-09-05T11:07:29.396Z,0.70
2022-09-05T11:10:04.156Z,0.87
2022-09-05T11:12:57.779Z,0.80
2022-09-05T11:16:03.996Z,1.22
2022-09-05T11:18:30.343Z,0.90
2022-09-05T11:21:32.249Z,0.83
2022-09-05T11:24:27.629Z,0.70
2022-09-05T11:27:23.662Z,1.10
2022-09-05T11:29:45.437Z,0.88
2022-09-05T11:36:30.912Z,0.90
2022-09-05T11:39:51.442Z,0.80
2022-09-05T11:39:57.302Z,1.07
2022-09-05T11:40:59.161Z,1.00
2022-09-05T11:43:39.629Z,0.93
2022-09-05T11:46:33.149Z,0.85
2022-09-05T11:49:08.475Z,0.90
2022-09-05T11:52:09.737Z,0.73
2022-09-05T11:55:04.718Z,0.70
2022-09-05T11:57:49.809Z,1.05
2022-09-05T12:00:31.614Z,0.98
2022-09-05T12:03:53.542Z,0.97
2022-09-05T12:06:21.220Z,0.87
2022-09-05T12:08:57.006Z,0.80
2022-09-05T12:11:43.209Z,0.90
2022-09-05T12:17:10.176Z,1.00
2022-09-05T12:19:41.982Z,1.17
2022-09-05T12:22:32.685Z,1.00
2022-09-05T12:27:20.913Z,0.70
2022-09-05T12:28:28.557Z,1.17
2022-09-05T12:30:42.385Z,1.10
2022-09-05T12:35:59.502Z,0.87
2022-09-05T12:40:48.317Z,0.80
2022-09-05T12:40:59.843Z,0.90
2022-09-05T12:41:42.900Z,1.00
2022-09-05T12:44:37.818Z,1.00
2022-09-05T12:46:37.312Z,0.83
2022-09-05T12:49:11.995Z,0.97
2022-09-05T12:51:47.682Z,0.90
2022-09-05T12:54:38.253Z,0.90
2022-09-05T13:01:08.146Z,1.10
2022-09-05T13:03:07.069Z,1.00
2022-09-05T13:03:14.501Z,1.02
2022-09-05T13:05:01.920Z,0.95
2022-09-05T13:07:43.962Z,1.10
2022-09-05T13:13:56.611Z,0.80
2022-09-05T13:14:54.537Z,0.80
2022-09-05T13:15:37.295Z,0.87
2022-09-05T13:18:17.379Z,0.67
2022-09-05T13:21:08.432Z,0.90
2022-09-05T13:23:41.830Z,1.10
2022-09-05T13:26:23.964Z,0.70
2022-09-05T13:29:09.993Z,1.07
2022-09-05T13:37:54.813Z,1.00
2022-09-05T13:38:04.393Z,1.47
2022-09-05T13:38:14.440Z,1.20
2022-09-05T13:39:55.264Z,0.93
2022-09-05T13:42:33.801Z,1.13
2022-09-05T13:45:04.102Z,0.87
2022-09-05T13:47:51.606Z,1.12
2022-09-05T13:50:29.653Z,1.00
2022-09-05T13:53:24.754Z,1.00
2022-09-05T13:56:03.505Z,0.97
2022-09-05T13:58:42.637Z,0.97
2022-09-05T14:01:25.753Z,0.80
2022-09-05T14:10:29.160Z,0.97
2022-09-05T14:13:24.394Z,1.17
2022-09-05T14:16:02.719Z,1.30
2022-09-05T14:18:36.596Z,1.50
2022-09-05T14:21:17.105Z,1.30
2022-09-05T14:23:58.300Z,1.20
2022-09-05T14:26:39.883Z,0.93
2022-09-05T14:29:14.456Z,1.10
2022-09-05T14:37:41.384Z,0.90
2022-09-05T14:37:59.418Z,0.90
2022-09-05T14:38:15.135Z,0.97
2022-09-05T14:41:18.445Z,0.83
2022-09-05T14:44:07.836Z,0.90
2022-09-05T14:46:42.962Z,0.80
2022-09-05T14:49:51.117Z,0.90
2022-09-05T14:52:35.469Z,1.20
2022-09-05T15:02:43.486Z,0.80
2022-09-05T15:02:44.857Z,0.80
2022-09-05T15:03:03.786Z,1.13
2022-09-05T15:05:32.584Z,1.20
2022-09-05T15:08:16.249Z,1.23
2022-09-05T15:12:18.914Z,1.07
2022-09-05T15:13:19.477Z,0.80
2022-09-05T15:16:02.532Z,0.90
2022-09-05T15:18:31.504Z,0.90
2022-09-05T15:21:33.198Z,0.70
2022-09-05T15:24:03.637Z,0.80
2022-09-05T15:26:34.792Z,0.90
2022-09-05T15:29:14.691Z,0.80
2022-09-05T15:31:45.482Z,1.20
2022-09-05T15:34:28.994Z,1.03
2022-09-05T15:37:09.131Z,0.80
2022-09-05T15:39:32.179Z,1.10
2022-09-05T15:42:16.866Z,0.80
2022-09-05T15:45:08.751Z,1.10
2022-09-05T15:47:24.287Z,1.02
2022-09-05T15:50:00.378Z,1.03
2022-09-05T15:52:41.822Z,1.02
2022-09-05T15:55:23.135Z,1.00
2022-09-05T15:57:55.965Z,1.17
2022-09-05T16:00:51.230Z,1.10
2022-09-05T16:04:28.705Z,0.90
2022-09-05T16:10:40.125Z,1.10
2022-09-05T16:10:49.438Z,1.10
2022-09-05T16:11:59.490Z,1.03
2022-09-05T16:14:11.276Z,1.23
2022-09-05T16:23:11.753Z,1.00
2022-09-05T16:23:15.839Z,1.30
2022-09-05T16:23:32.259Z,1.00
2022-09-05T16:24:59.908Z,1.37
2022-09-05T16:27:03.286Z,1.27
2022-09-05T16:29:36.085Z,1.20
2022-09-05T16:32:29.109Z,1.40
2022-09-05T16:35:14.131Z,1.13
2022-09-05T16:37:52.442Z,1.10
2022-09-05T16:40:27.573Z,0.97
2022-09-05T16:43:00.378Z,0.77
2022-09-05T16:45:49.361Z,1.00
2022-09-05T16:48:50.130Z,1.20
2022-09-05T16:51:35.777Z,1.00
2022-09-05T16:54:40.919Z,1.20
2022-09-05T16:57:13.469Z,1.00
2022-09-05T16:59:45.656Z,1.10
2022-09-05T17:02:40.308Z,0.80
2022-09-05T17:05:15.695Z,1.50
2022-09-05T17:08:00.613Z,1.98
2022-09-05T17:13:40.901Z,0.95
2022-09-05T17:16:17.164Z,1.30
2022-09-05T17:18:51.470Z,1.60
2022-09-05T17:24:21.669Z,1.67
2022-09-05T17:29:17.194Z,1.10
2022-09-05T17:29:30.088Z,0.90
2022-09-05T17:32:16.144Z,1.00
2022-09-05T17:34:52.592Z,1.20
2022-09-05T17:38:11.433Z,0.90
2022-09-05T17:40:37.759Z,1.10
2022-09-05T17:43:29.167Z,1.40
2022-09-05T17:46:18.520Z,1.27
2022-09-05T17:49:18.726Z,1.10
2022-09-05T17:51:31.663Z,1.03
2022-09-05T17:54:06.112Z,1.00
2022-09-05T17:56:40.691Z,1.20
2022-09-05T17:59:24.461Z,1.27
2022-09-05T18:02:12.218Z,1.40
2022-09-05T18:04:50.649Z,1.10
2022-09-05T18:07:32.714Z,1.20
2022-09-05T18:10:14.492Z,1.60
2022-09-05T18:13:14.253Z,1.73
2022-09-05T18:15:32.547Z,1.35
2022-09-05T18:18:07.006Z,1.40
2022-09-05T18:21:09.363Z,1.97
2022-09-05T18:23:39.757Z,1.80
2022-09-05T18:26:24.140Z,1.57
2022-09-05T18:29:02.758Z,1.40
2022-09-05T18:31:43.541Z,1.70
2022-09-05T18:34:19.303Z,1.40
2022-09-05T18:36:56.128Z,1.62
2022-09-05T18:39:29.549Z,1.60
2022-09-05T18:42:33.682Z,1.80
2022-09-05T18:44:49.793Z,2.07
2022-09-05T18:47:33.902Z,1.23
2022-09-05T18:50:24.409Z,1.75
2022-09-05T18:52:38.951Z,1.77
2022-09-05T18:56:12.453Z,1.73
2022-09-05T18:58:08.941Z,1.87
2022-09-05T19:00:44.778Z,1.35
2022-09-05T19:03:31.419Z,1.40
2022-09-05T19:06:34.607Z,1.40
2022-09-05T19:08:47.041Z,1.50
2022-09-05T19:11:28.186Z,1.63
2022-09-05T19:14:25.789Z,1.57
2022-09-05T19:16:43.442Z,1.20
2022-09-05T19:19:16.738Z,1.80
2022-09-05T19:22:33.305Z,1.95
2022-09-05T19:24:42.683Z,1.30
2022-09-05T19:27:28.000Z,1.87
2022-09-05T19:36:47.359Z,1.53
2022-09-05T19:36:51.244Z,1.80
2022-09-05T19:37:13.893Z,1.70
2022-09-05T19:37:26.322Z,1.67
2022-09-05T19:46:17.059Z,1.40
2022-09-05T19:47:30.684Z,1.30
2022-09-05T19:47:41.361Z,1.30
2022-09-05T19:50:11.251Z,1.70
2022-09-05T19:52:41.123Z,1.83
2022-09-05T19:55:25.958Z,1.80
2022-09-05T19:58:19.174Z,1.50
2022-09-05T20:00:29.192Z,1.20
2022-09-05T20:03:01.073Z,1.30
2022-09-05T20:05:31.266Z,1.50
2022-09-05T20:08:01.964Z,1.37
2022-09-05T20:10:34.381Z,1.17
2022-09-05T20:13:15.763Z,1.30
2022-09-05T20:15:45.933Z,1.30
2022-09-05T20:18:21.433Z,1.22
2022-09-05T20:20:57.147Z,1.43
2022-09-05T20:23:31.021Z,1.37
2022-09-05T20:26:01.927Z,1.23
2022-09-05T20:28:37.974Z,1.17
2022-09-05T20:31:10.805Z,1.12
2022-09-05T20:33:43.589Z,1.23
2022-09-05T20:42:35.549Z,1.30
2022-09-05T20:43:21.186Z,1.27
2022-09-05T20:43:28.825Z,1.40
2022-09-05T20:44:15.525Z,1.07
2022-09-05T20:54:10.174Z,1.10
2022-09-05T20:54:17.177Z,1.27
2022-09-05T20:54:18.858Z,1.00
2022-09-05T20:54:53.179Z,1.20
2022-09-05T20:57:28.930Z,1.20
2022-09-05T21:00:07.565Z,1.80
2022-09-05T21:02:37.139Z,1.70
2022-09-05T21:05:21.113Z,1.30
2022-09-05T21:07:46.046Z,1.40
2022-09-05T21:10:23.380Z,1.70
2022-09-05T21:12:58.939Z,1.47
2022-09-05T21:15:53.029Z,1.20
2022-09-05T21:18:15.985Z,1.20
2022-09-05T21:21:29.025Z,1.40
2022-09-05T21:23:40.137Z,1.60
2022-09-05T21:26:25.193Z,1.50
2022-09-05T21:29:08.940Z,1.50
2022-09-05T21:31:54.360Z,1.20
2022-09-05T21:34:25.068Z,1.10
2022-09-05T21:37:06.828Z,1.50
2022-09-05T21:39:34.770Z,1.20
2022-09-05T21:43:36.126Z,1.35
2022-09-05T21:47:43.438Z,1.40
2022-09-05T21:47:46.381Z,1.40
2022-09-05T21:49:41.052Z,1.10
2022-09-05T21:52:11.685Z,1.30
2022-09-05T21:56:35.960Z,1.35
2022-09-05T21:59:28.692Z,1.60
2022-09-05T22:00:07.085Z,1.40
2022-09-05T22:02:32.473Z,1.30
2022-09-05T22:05:04.646Z,1.70
2022-09-05T22:07:37.466Z,1.40
2022-09-05T22:10:10.362Z,1.40
2022-09-05T22:12:40.480Z,1.27
2022-09-05T22:15:29.121Z,1.50
2022-09-05T22:17:47.080Z,1.40
2022-09-05T22:20:20.869Z,1.30
2022-09-05T22:22:56.576Z,1.40
2022-09-05T22:25:28.664Z,1.30
2022-09-05T22:28:07.348Z,1.30
2022-09-05T22:30:38.681Z,1.47
2022-09-05T22:33:09.860Z,1.20
2022-09-05T22:35:40.208Z,1.27
2022-09-05T22:38:17.846Z,1.77
2022-09-05T22:40:44.571Z,1.10
2022-09-05T22:43:14.503Z,0.90
2022-09-05T22:45:44.270Z,1.30
2022-09-05T22:48:15.530Z,0.88
2022-09-05T22:50:45.461Z,1.20
2022-09-05T22:53:15.455Z,1.10
2022-09-05T22:55:45.580Z,0.95
2022-09-05T22:58:16.600Z,1.30
2022-09-05T23:00:46.460Z,1.23
2022-09-05T23:03:16.591Z,1.00
2022-09-05T23:05:47.018Z,0.93
2022-09-05T23:08:16.915Z,1.40
2022-09-05T23:10:46.391Z,1.20
2022-09-05T23:13:16.160Z,1.17
2022-09-05T23:15:45.933Z,1.20
2022-09-05T23:18:15.684Z,1.10
2022-09-05T23:20:45.457Z,1.43
2022-09-05T23:23:15.214Z,1.40
2022-09-05T23:25:45.011Z,1.60
2022-09-05T23:28:14.779Z,1.80
2022-09-05T23:30:44.651Z,1.30
2022-09-05T23:33:14.705Z,1.60
2022-09-05T23:35:44.474Z,1.90
2022-09-05T23:38:14.220Z,1.60
2022-09-05T23:40:46.252Z,1.30
2022-09-05T23:43:15.970Z,1.50
2022-09-05T23:45:47.807Z,1.40
2022-09-05T23:48:17.757Z,1.45
2022-09-05T23:50:47.601Z,1.40
2022-09-05T23:53:18.071Z,1.40
2022-09-05T23:55:47.930Z,1.20
2022-09-05T23:58:18.121Z,1.30
